sensor_id;sensor_type;location;lat;lon;timestamp;temperature;humidity
20319;DHT22;10317;47.254;11.314;2023-05-25T00:00:41;10.90;99.90
20319;DHT22;10317;47.254;11.314;2023-05-25T00:03:07;10.90;99.90
20319;DHT22;10317;47.254;11.314;2023-05-25T00:05:34;10.90;99.90
20319;DHT22;10317;47.254;11.314;2023-05-25T00:08:00;10.90;99.90
20319;DHT22;10317;47.254;11.314;2023-05-25T00:10:26;10.80;99.90
20319;DHT22;10317;47.254;11.314;2023-05-25T00:12:52;10.80;99.90
20319;DHT22;10317;47.254;11.314;2023-05-25T00:15:18;10.80;99.90
20319;DHT22;10317;47.254;11.314;2023-05-25T00:17:43;10.80;99.90
20319;DHT22;10317;47.254;11.314;2023-05-25T00:20:09;10.80;99.90
20319;DHT22;10317;47.254;11.314;2023-05-25T00:22:36;10.70;99.90
20319;DHT22;10317;47.254;11.314;2023-05-25T00:25:02;10.70;99.90
20319;DHT22;10317;47.254;11.314;2023-05-25T00:27:29;10.70;99.90
20319;DHT22;10317;47.254;11.314;2023-05-25T00:29:54;10.60;99.90
20319;DHT22;10317;47.254;11.314;2023-05-25T00:32:20;10.60;99.90
20319;DHT22;10317;47.254;11.314;2023-05-25T00:34:46;10.60;99.90
20319;DHT22;10317;47.254;11.314;2023-05-25T00:37:12;10.60;99.90
20319;DHT22;10317;47.254;11.314;2023-05-25T00:39:38;10.60;99.90
20319;DHT22;10317;47.254;11.314;2023-05-25T00:42:04;10.60;99.90
20319;DHT22;10317;47.254;11.314;2023-05-25T00:44:31;10.60;99.90
20319;DHT22;10317;47.254;11.314;2023-05-25T00:46:59;10.60;99.90
20319;DHT22;10317;47.254;11.314;2023-05-25T00:49:27;10.70;99.90
20319;DHT22;10317;47.254;11.314;2023-05-25T00:51:56;10.70;99.90
20319;DHT22;10317;47.254;11.314;2023-05-25T00:54:22;10.70;99.90
20319;DHT22;10317;47.254;11.314;2023-05-25T00:56:56;10.70;99.90
20319;DHT22;10317;47.254;11.314;2023-05-25T00:59:32;10.70;99.90
20319;DHT22;10317;47.254;11.314;2023-05-25T01:02:02;10.70;99.90
20319;DHT22;10317;47.254;11.314;2023-05-25T01:04:34;10.70;99.90
20319;DHT22;10317;47.254;11.314;2023-05-25T01:07:03;10.70;99.90
20319;DHT22;10317;47.254;11.314;2023-05-25T01:09:29;10.70;99.90
20319;DHT22;10317;47.254;11.314;2023-05-25T01:11:59;10.70;99.90
20319;DHT22;10317;47.254;11.314;2023-05-25T01:14:27;10.70;99.90
20319;DHT22;10317;47.254;11.314;2023-05-25T01:16:53;10.70;99.90
20319;DHT22;10317;47.254;11.314;2023-05-25T01:19:23;10.70;99.90
20319;DHT22;10317;47.254;11.314;2023-05-25T01:21:55;10.70;99.90
20319;DHT22;10317;47.254;11.314;2023-05-25T01:27:29;10.70;99.90
20319;DHT22;10317;47.254;11.314;2023-05-25T01:29:58;10.70;99.90
20319;DHT22;10317;47.254;11.314;2023-05-25T01:32:25;10.80;99.90
20319;DHT22;10317;47.254;11.314;2023-05-25T01:34:54;10.70;99.90
20319;DHT22;10317;47.254;11.314;2023-05-25T01:37:20;10.70;99.90
20319;DHT22;10317;47.254;11.314;2023-05-25T01:39:49;10.70;99.90
20319;DHT22;10317;47.254;11.314;2023-05-25T01:42:15;10.70;99.90
20319;DHT22;10317;47.254;11.314;2023-05-25T01:44:41;10.70;99.90
20319;DHT22;10317;47.254;11.314;2023-05-25T01:47:14;10.70;99.90
20319;DHT22;10317;47.254;11.314;2023-05-25T01:52:31;10.70;99.90
20319;DHT22;10317;47.254;11.314;2023-05-25T01:55:05;10.70;99.90
20319;DHT22;10317;47.254;11.314;2023-05-25T01:57:34;10.60;99.90
20319;DHT22;10317;47.254;11.314;2023-05-25T02:00:01;10.60;99.90
20319;DHT22;10317;47.254;11.314;2023-05-25T02:02:30;10.50;99.90
20319;DHT22;10317;47.254;11.314;2023-05-25T02:04:56;10.40;99.90
20319;DHT22;10317;47.254;11.314;2023-05-25T02:07:22;10.40;99.90
20319;DHT22;10317;47.254;11.314;2023-05-25T02:09:48;10.40;99.90
20319;DHT22;10317;47.254;11.314;2023-05-25T02:12:14;10.40;99.90
20319;DHT22;10317;47.254;11.314;2023-05-25T02:14:40;10.40;99.90
20319;DHT22;10317;47.254;11.314;2023-05-25T02:17:05;10.40;99.90
20319;DHT22;10317;47.254;11.314;2023-05-25T02:19:33;10.40;99.90
20319;DHT22;10317;47.254;11.314;2023-05-25T02:21:59;10.40;99.90
20319;DHT22;10317;47.254;11.314;2023-05-25T02:24:25;10.40;99.90
20319;DHT22;10317;47.254;11.314;2023-05-25T02:26:50;10.50;99.90
20319;DHT22;10317;47.254;11.314;2023-05-25T02:29:16;10.50;99.90
20319;DHT22;10317;47.254;11.314;2023-05-25T02:31:42;10.50;99.90
20319;DHT22;10317;47.254;11.314;2023-05-25T02:34:08;10.40;99.90
20319;DHT22;10317;47.254;11.314;2023-05-25T02:36:34;10.50;99.90
20319;DHT22;10317;47.254;11.314;2023-05-25T02:39:00;10.40;99.90
20319;DHT22;10317;47.254;11.314;2023-05-25T02:41:26;10.40;99.90
20319;DHT22;10317;47.254;11.314;2023-05-25T02:43:52;10.40;99.90
20319;DHT22;10317;47.254;11.314;2023-05-25T02:46:19;10.40;99.90
20319;DHT22;10317;47.254;11.314;2023-05-25T02:48:45;10.40;99.90
20319;DHT22;10317;47.254;11.314;2023-05-25T02:51:11;10.40;99.90
20319;DHT22;10317;47.254;11.314;2023-05-25T02:53:37;10.40;99.90
20319;DHT22;10317;47.254;11.314;2023-05-25T02:56:03;10.40;99.90
20319;DHT22;10317;47.254;11.314;2023-05-25T02:58:34;10.30;99.90
20319;DHT22;10317;47.254;11.314;2023-05-25T03:01:00;10.30;99.90
20319;DHT22;10317;47.254;11.314;2023-05-25T03:03:26;10.30;99.90
20319;DHT22;10317;47.254;11.314;2023-05-25T03:05:52;10.30;99.90
20319;DHT22;10317;47.254;11.314;2023-05-25T03:08:18;10.30;99.90
20319;DHT22;10317;47.254;11.314;2023-05-25T03:10:44;10.30;99.90
20319;DHT22;10317;47.254;11.314;2023-05-25T03:13:10;10.30;99.90
20319;DHT22;10317;47.254;11.314;2023-05-25T03:15:35;10.30;99.90
20319;DHT22;10317;47.254;11.314;2023-05-25T03:18:01;10.30;99.90
20319;DHT22;10317;47.254;11.314;2023-05-25T03:20:27;10.30;99.90
20319;DHT22;10317;47.254;11.314;2023-05-25T03:22:54;10.20;99.90
20319;DHT22;10317;47.254;11.314;2023-05-25T03:25:20;10.20;99.90
20319;DHT22;10317;47.254;11.314;2023-05-25T03:27:51;10.20;99.90
20319;DHT22;10317;47.254;11.314;2023-05-25T03:30:17;10.20;99.90
20319;DHT22;10317;47.254;11.314;2023-05-25T03:32:42;10.30;99.90
20319;DHT22;10317;47.254;11.314;2023-05-25T03:35:08;10.30;99.90
20319;DHT22;10317;47.254;11.314;2023-05-25T03:37:34;10.20;99.90
20319;DHT22;10317;47.254;11.314;2023-05-25T03:39:59;10.20;99.90
20319;DHT22;10317;47.254;11.314;2023-05-25T03:42:25;10.20;99.90
20319;DHT22;10317;47.254;11.314;2023-05-25T03:44:51;10.20;99.90
20319;DHT22;10317;47.254;11.314;2023-05-25T03:47:16;10.30;99.90
20319;DHT22;10317;47.254;11.314;2023-05-25T03:49:42;10.30;99.90
20319;DHT22;10317;47.254;11.314;2023-05-25T03:52:08;10.30;99.90
20319;DHT22;10317;47.254;11.314;2023-05-25T03:54:33;10.30;99.90
20319;DHT22;10317;47.254;11.314;2023-05-25T03:56:59;10.30;99.90
20319;DHT22;10317;47.254;11.314;2023-05-25T03:59:26;10.30;99.90
20319;DHT22;10317;47.254;11.314;2023-05-25T04:01:52;10.30;99.90
20319;DHT22;10317;47.254;11.314;2023-05-25T04:04:17;10.40;99.90
20319;DHT22;10317;47.254;11.314;2023-05-25T04:06:43;10.40;99.90
20319;DHT22;10317;47.254;11.314;2023-05-25T04:09:10;10.50;99.90
20319;DHT22;10317;47.254;11.314;2023-05-25T04:11:36;10.50;99.90
20319;DHT22;10317;47.254;11.314;2023-05-25T04:14:02;10.60;99.90
20319;DHT22;10317;47.254;11.314;2023-05-25T04:16:28;10.50;99.90
20319;DHT22;10317;47.254;11.314;2023-05-25T04:18:54;10.50;99.90
20319;DHT22;10317;47.254;11.314;2023-05-25T04:21:20;10.60;99.90
20319;DHT22;10317;47.254;11.314;2023-05-25T04:23:46;10.60;99.90
20319;DHT22;10317;47.254;11.314;2023-05-25T04:26:13;10.60;99.90
20319;DHT22;10317;47.254;11.314;2023-05-25T04:28:40;10.60;99.90
20319;DHT22;10317;47.254;11.314;2023-05-25T04:31:06;10.70;99.90
20319;DHT22;10317;47.254;11.314;2023-05-25T04:33:32;10.70;99.90
20319;DHT22;10317;47.254;11.314;2023-05-25T04:35:59;10.70;99.90
20319;DHT22;10317;47.254;11.314;2023-05-25T04:38:25;10.80;99.90
20319;DHT22;10317;47.254;11.314;2023-05-25T04:40:51;10.80;99.90
20319;DHT22;10317;47.254;11.314;2023-05-25T04:43:22;10.80;99.90
20319;DHT22;10317;47.254;11.314;2023-05-25T04:45:51;10.90;99.90
20319;DHT22;10317;47.254;11.314;2023-05-25T04:48:17;11.00;99.90
20319;DHT22;10317;47.254;11.314;2023-05-25T04:50:42;11.00;99.90
20319;DHT22;10317;47.254;11.314;2023-05-25T04:53:08;11.10;99.90
20319;DHT22;10317;47.254;11.314;2023-05-25T04:55:34;11.20;99.90
20319;DHT22;10317;47.254;11.314;2023-05-25T04:58:00;11.30;99.90
20319;DHT22;10317;47.254;11.314;2023-05-25T05:00:26;11.40;99.90
20319;DHT22;10317;47.254;11.314;2023-05-25T05:02:54;11.50;99.90
20319;DHT22;10317;47.254;11.314;2023-05-25T05:05:25;11.50;99.90
20319;DHT22;10317;47.254;11.314;2023-05-25T05:07:51;11.50;99.90
20319;DHT22;10317;47.254;11.314;2023-05-25T05:10:18;11.70;99.90
20319;DHT22;10317;47.254;11.314;2023-05-25T05:12:44;11.80;99.90
20319;DHT22;10317;47.254;11.314;2023-05-25T05:15:10;12.00;99.90
20319;DHT22;10317;47.254;11.314;2023-05-25T05:17:36;12.10;99.90
20319;DHT22;10317;47.254;11.314;2023-05-25T05:20:02;12.30;99.90
20319;DHT22;10317;47.254;11.314;2023-05-25T05:22:31;12.40;99.90
20319;DHT22;10317;47.254;11.314;2023-05-25T05:24:57;12.40;99.90
20319;DHT22;10317;47.254;11.314;2023-05-25T05:27:23;12.40;99.90
20319;DHT22;10317;47.254;11.314;2023-05-25T05:29:51;12.40;99.90
20319;DHT22;10317;47.254;11.314;2023-05-25T05:32:17;12.40;99.90
20319;DHT22;10317;47.254;11.314;2023-05-25T05:34:42;12.40;99.90
20319;DHT22;10317;47.254;11.314;2023-05-25T05:37:08;12.60;99.90
20319;DHT22;10317;47.254;11.314;2023-05-25T05:39:34;12.70;99.90
20319;DHT22;10317;47.254;11.314;2023-05-25T05:42:01;12.90;99.90
20319;DHT22;10317;47.254;11.314;2023-05-25T05:44:29;13.20;99.90
20319;DHT22;10317;47.254;11.314;2023-05-25T05:57:16;13.50;99.90
20319;DHT22;10317;47.254;11.314;2023-05-25T05:59:42;13.50;99.90
20319;DHT22;10317;47.254;11.314;2023-05-25T06:02:11;14.10;99.90
20319;DHT22;10317;47.254;11.314;2023-05-25T06:04:39;14.80;99.90
20319;DHT22;10317;47.254;11.314;2023-05-25T06:07:25;15.60;99.90
20319;DHT22;10317;47.254;11.314;2023-05-25T06:09:53;16.30;99.90
20319;DHT22;10317;47.254;11.314;2023-05-25T06:16:40;16.60;99.90
20319;DHT22;10317;47.254;11.314;2023-05-25T06:19:10;16.50;99.90
20319;DHT22;10317;47.254;11.314;2023-05-25T06:42:57;19.60;98.20
20319;DHT22;10317;47.254;11.314;2023-05-25T06:45:23;20.20;97.40
20319;DHT22;10317;47.254;11.314;2023-05-25T06:48:03;20.40;93.90
20319;DHT22;10317;47.254;11.314;2023-05-25T07:21:27;21.40;83.10
20319;DHT22;10317;47.254;11.314;2023-05-25T07:23:53;21.70;85.40
20319;DHT22;10317;47.254;11.314;2023-05-25T07:26:25;21.50;81.90
20319;DHT22;10317;47.254;11.314;2023-05-25T07:28:52;21.60;83.90
20319;DHT22;10317;47.254;11.314;2023-05-25T07:31:20;21.40;84.00
20319;DHT22;10317;47.254;11.314;2023-05-25T07:33:54;22.20;82.60
20319;DHT22;10317;47.254;11.314;2023-05-25T07:36:20;22.10;79.80
20319;DHT22;10317;47.254;11.314;2023-05-25T07:38:49;22.20;79.10
20319;DHT22;10317;47.254;11.314;2023-05-25T07:41:20;22.00;78.50
20319;DHT22;10317;47.254;11.314;2023-05-25T07:44:02;22.80;80.80
20319;DHT22;10317;47.254;11.314;2023-05-25T07:46:34;22.70;77.70
20319;DHT22;10317;47.254;11.314;2023-05-25T07:49:08;22.80;78.20
20319;DHT22;10317;47.254;11.314;2023-05-25T07:51:42;23.00;73.00
20319;DHT22;10317;47.254;11.314;2023-05-25T08:00:09;22.70;71.20
20319;DHT22;10317;47.254;11.314;2023-05-25T08:03:04;22.90;69.80
20319;DHT22;10317;47.254;11.314;2023-05-25T08:06:22;23.20;71.20
20319;DHT22;10317;47.254;11.314;2023-05-25T08:12:20;22.70;70.50
20319;DHT22;10317;47.254;11.314;2023-05-25T08:17:58;22.80;69.80
20319;DHT22;10317;47.254;11.314;2023-05-25T08:20:56;22.40;69.60
20319;DHT22;10317;47.254;11.314;2023-05-25T08:23:25;22.40;69.20
20319;DHT22;10317;47.254;11.314;2023-05-25T08:25:51;22.40;73.00
20319;DHT22;10317;47.254;11.314;2023-05-25T08:28:19;22.00;70.40
20319;DHT22;10317;47.254;11.314;2023-05-25T08:30:45;22.10;71.40
20319;DHT22;10317;47.254;11.314;2023-05-25T08:33:10;22.20;73.70
20319;DHT22;10317;47.254;11.314;2023-05-25T08:35:37;22.20;71.90
20319;DHT22;10317;47.254;11.314;2023-05-25T08:38:05;21.80;72.80
20319;DHT22;10317;47.254;11.314;2023-05-25T08:40:31;22.30;72.70
20319;DHT22;10317;47.254;11.314;2023-05-25T08:42:57;22.70;73.20
20319;DHT22;10317;47.254;11.314;2023-05-25T08:45:22;22.60;71.90
20319;DHT22;10317;47.254;11.314;2023-05-25T08:47:52;22.60;71.90
20319;DHT22;10317;47.254;11.314;2023-05-25T08:50:18;22.40;72.10
20319;DHT22;10317;47.254;11.314;2023-05-25T08:52:45;22.30;71.50
20319;DHT22;10317;47.254;11.314;2023-05-25T08:55:14;21.70;73.90
20319;DHT22;10317;47.254;11.314;2023-05-25T08:58:05;22.40;73.40
20319;DHT22;10317;47.254;11.314;2023-05-25T09:00:34;22.20;72.90
20319;DHT22;10317;47.254;11.314;2023-05-25T09:03:17;22.00;72.80
20319;DHT22;10317;47.254;11.314;2023-05-25T09:05:42;22.00;74.00
20319;DHT22;10317;47.254;11.314;2023-05-25T09:08:08;22.00;75.80
20319;DHT22;10317;47.254;11.314;2023-05-25T09:10:38;21.90;73.80
20319;DHT22;10317;47.254;11.314;2023-05-25T09:13:04;22.10;72.30
20319;DHT22;10317;47.254;11.314;2023-05-25T09:15:31;22.00;73.70
20319;DHT22;10317;47.254;11.314;2023-05-25T09:17:57;22.30;77.60
20319;DHT22;10317;47.254;11.314;2023-05-25T09:20:23;21.90;72.40
20319;DHT22;10317;47.254;11.314;2023-05-25T09:22:58;21.80;75.20
20319;DHT22;10317;47.254;11.314;2023-05-25T09:25:28;22.00;74.70
20319;DHT22;10317;47.254;11.314;2023-05-25T09:27:55;21.80;74.70
20319;DHT22;10317;47.254;11.314;2023-05-25T09:30:24;21.60;72.60
20319;DHT22;10317;47.254;11.314;2023-05-25T09:32:52;21.70;71.50
20319;DHT22;10317;47.254;11.314;2023-05-25T09:35:18;21.60;72.70
20319;DHT22;10317;47.254;11.314;2023-05-25T09:37:44;21.70;72.10
20319;DHT22;10317;47.254;11.314;2023-05-25T09:40:10;21.90;75.60
20319;DHT22;10317;47.254;11.314;2023-05-25T09:42:36;22.10;73.00
20319;DHT22;10317;47.254;11.314;2023-05-25T09:45:03;22.30;71.30
20319;DHT22;10317;47.254;11.314;2023-05-25T09:47:30;22.60;70.20
20319;DHT22;10317;47.254;11.314;2023-05-25T09:49:56;22.70;67.70
20319;DHT22;10317;47.254;11.314;2023-05-25T09:52:22;22.80;70.00
20319;DHT22;10317;47.254;11.314;2023-05-25T09:54:49;23.10;69.70
20319;DHT22;10317;47.254;11.314;2023-05-25T09:57:17;23.40;72.40
20319;DHT22;10317;47.254;11.314;2023-05-25T09:59:43;23.30;73.40
20319;DHT22;10317;47.254;11.314;2023-05-25T10:02:10;23.50;67.80
20319;DHT22;10317;47.254;11.314;2023-05-25T10:04:35;23.40;66.60
20319;DHT22;10317;47.254;11.314;2023-05-25T10:07:02;23.50;68.40
20319;DHT22;10317;47.254;11.314;2023-05-25T10:09:29;23.20;66.30
20319;DHT22;10317;47.254;11.314;2023-05-25T10:11:58;23.40;65.30
20319;DHT22;10317;47.254;11.314;2023-05-25T10:14:26;23.20;67.60
20319;DHT22;10317;47.254;11.314;2023-05-25T10:16:53;23.50;69.10
20319;DHT22;10317;47.254;11.314;2023-05-25T10:25:07;23.80;66.90
20319;DHT22;10317;47.254;11.314;2023-05-25T10:27:46;23.80;65.00
20319;DHT22;10317;47.254;11.314;2023-05-25T10:30:13;23.90;63.60
20319;DHT22;10317;47.254;11.314;2023-05-25T10:32:39;24.00;65.60
20319;DHT22;10317;47.254;11.314;2023-05-25T10:35:08;24.10;66.50
20319;DHT22;10317;47.254;11.314;2023-05-25T10:37:34;23.70;65.10
20319;DHT22;10317;47.254;11.314;2023-05-25T10:40:01;23.60;66.90
20319;DHT22;10317;47.254;11.314;2023-05-25T10:42:28;23.70;65.00
20319;DHT22;10317;47.254;11.314;2023-05-25T10:44:56;23.70;64.40
20319;DHT22;10317;47.254;11.314;2023-05-25T10:47:22;23.80;64.40
20319;DHT22;10317;47.254;11.314;2023-05-25T10:49:58;23.90;64.10
20319;DHT22;10317;47.254;11.314;2023-05-25T10:52:30;23.90;64.60
20319;DHT22;10317;47.254;11.314;2023-05-25T10:54:58;24.00;66.20
20319;DHT22;10317;47.254;11.314;2023-05-25T10:57:26;24.10;67.90
20319;DHT22;10317;47.254;11.314;2023-05-25T10:59:54;24.00;65.40
20319;DHT22;10317;47.254;11.314;2023-05-25T11:02:28;24.10;65.80
20319;DHT22;10317;47.254;11.314;2023-05-25T11:07:54;24.20;64.10
20319;DHT22;10317;47.254;11.314;2023-05-25T11:13:33;24.20;64.70
20319;DHT22;10317;47.254;11.314;2023-05-25T11:16:15;24.00;67.80
20319;DHT22;10317;47.254;11.314;2023-05-25T11:18:48;24.40;64.70
20319;DHT22;10317;47.254;11.314;2023-05-25T11:23:55;24.40;63.10
20319;DHT22;10317;47.254;11.314;2023-05-25T11:26:26;24.50;64.60
20319;DHT22;10317;47.254;11.314;2023-05-25T11:28:56;24.60;64.70
20319;DHT22;10317;47.254;11.314;2023-05-25T11:31:33;24.70;63.80
20319;DHT22;10317;47.254;11.314;2023-05-25T11:34:03;24.80;62.40
20319;DHT22;10317;47.254;11.314;2023-05-25T11:36:34;24.60;63.20
20319;DHT22;10317;47.254;11.314;2023-05-25T11:39:02;24.60;63.10
20319;DHT22;10317;47.254;11.314;2023-05-25T11:41:31;24.60;63.90
20319;DHT22;10317;47.254;11.314;2023-05-25T11:44:02;24.40;65.30
20319;DHT22;10317;47.254;11.314;2023-05-25T11:46:28;24.50;65.30
20319;DHT22;10317;47.254;11.314;2023-05-25T11:48:58;24.40;64.50
20319;DHT22;10317;47.254;11.314;2023-05-25T11:51:26;24.50;67.00
20319;DHT22;10317;47.254;11.314;2023-05-25T11:53:52;24.80;69.80
20319;DHT22;10317;47.254;11.314;2023-05-25T11:56:21;25.00;65.30
20319;DHT22;10317;47.254;11.314;2023-05-25T11:58:49;25.20;64.70
20319;DHT22;10317;47.254;11.314;2023-05-25T12:01:20;25.20;62.00
20319;DHT22;10317;47.254;11.314;2023-05-25T12:03:52;25.10;64.30
20319;DHT22;10317;47.254;11.314;2023-05-25T12:08:49;25.30;61.90
20319;DHT22;10317;47.254;11.314;2023-05-25T12:11:15;25.50;62.40
20319;DHT22;10317;47.254;11.314;2023-05-25T12:13:41;25.40;61.50
20319;DHT22;10317;47.254;11.314;2023-05-25T12:16:07;25.60;61.40
20319;DHT22;10317;47.254;11.314;2023-05-25T12:18:33;25.50;62.50
20319;DHT22;10317;47.254;11.314;2023-05-25T12:20:58;25.70;63.30
20319;DHT22;10317;47.254;11.314;2023-05-25T12:23:24;25.40;63.20
20319;DHT22;10317;47.254;11.314;2023-05-25T12:26:11;25.60;63.60
20319;DHT22;10317;47.254;11.314;2023-05-25T12:28:37;26.00;64.00
20319;DHT22;10317;47.254;11.314;2023-05-25T12:31:22;25.80;63.40
20319;DHT22;10317;47.254;11.314;2023-05-25T12:34:05;26.00;63.40
20319;DHT22;10317;47.254;11.314;2023-05-25T12:36:52;26.30;62.60
20319;DHT22;10317;47.254;11.314;2023-05-25T12:41:53;26.60;62.00
20319;DHT22;10317;47.254;11.314;2023-05-25T12:44:26;26.60;60.50
20319;DHT22;10317;47.254;11.314;2023-05-25T12:46:54;26.60;59.50
20319;DHT22;10317;47.254;11.314;2023-05-25T12:49:31;26.60;60.80
20319;DHT22;10317;47.254;11.314;2023-05-25T12:52:00;26.50;59.60
20319;DHT22;10317;47.254;11.314;2023-05-25T12:54:55;26.40;60.80
20319;DHT22;10317;47.254;11.314;2023-05-25T12:57:21;26.60;59.40
20319;DHT22;10317;47.254;11.314;2023-05-25T12:59:46;26.50;58.00
20319;DHT22;10317;47.254;11.314;2023-05-25T13:02:13;26.60;58.70
20319;DHT22;10317;47.254;11.314;2023-05-25T13:04:40;26.70;57.80
20319;DHT22;10317;47.254;11.314;2023-05-25T13:07:09;26.80;56.50
20319;DHT22;10317;47.254;11.314;2023-05-25T13:09:35;26.70;56.20
20319;DHT22;10317;47.254;11.314;2023-05-25T13:12:01;26.80;55.20
20319;DHT22;10317;47.254;11.314;2023-05-25T13:14:28;26.80;55.80
20319;DHT22;10317;47.254;11.314;2023-05-25T13:16:54;26.90;56.50
20319;DHT22;10317;47.254;11.314;2023-05-25T13:19:22;26.90;54.00
20319;DHT22;10317;47.254;11.314;2023-05-25T13:21:49;27.00;55.00
20319;DHT22;10317;47.254;11.314;2023-05-25T13:24:16;27.00;54.00
20319;DHT22;10317;47.254;11.314;2023-05-25T13:26:44;27.00;55.10
20319;DHT22;10317;47.254;11.314;2023-05-25T13:29:10;27.10;53.90
20319;DHT22;10317;47.254;11.314;2023-05-25T13:31:36;27.10;54.30
20319;DHT22;10317;47.254;11.314;2023-05-25T13:34:02;27.10;53.40
20319;DHT22;10317;47.254;11.314;2023-05-25T13:36:29;27.20;52.00
20319;DHT22;10317;47.254;11.314;2023-05-25T13:38:56;27.30;55.30
20319;DHT22;10317;47.254;11.314;2023-05-25T13:41:23;27.50;54.30
20319;DHT22;10317;47.254;11.314;2023-05-25T13:43:49;27.60;54.60
20319;DHT22;10317;47.254;11.314;2023-05-25T13:46:14;27.70;54.20
20319;DHT22;10317;47.254;11.314;2023-05-25T13:48:40;27.80;54.10
20319;DHT22;10317;47.254;11.314;2023-05-25T13:51:15;27.90;51.50
20319;DHT22;10317;47.254;11.314;2023-05-25T13:53:41;28.00;50.00
20319;DHT22;10317;47.254;11.314;2023-05-25T13:56:08;28.00;51.50
20319;DHT22;10317;47.254;11.314;2023-05-25T13:58:34;27.90;48.60
20319;DHT22;10317;47.254;11.314;2023-05-25T14:01:01;27.90;51.50
20319;DHT22;10317;47.254;11.314;2023-05-25T14:03:27;28.10;49.70
20319;DHT22;10317;47.254;11.314;2023-05-25T14:05:53;28.10;46.70
20319;DHT22;10317;47.254;11.314;2023-05-25T14:08:18;28.00;46.90
20319;DHT22;10317;47.254;11.314;2023-05-25T14:10:44;27.90;47.10
20319;DHT22;10317;47.254;11.314;2023-05-25T14:13:10;27.80;46.80
20319;DHT22;10317;47.254;11.314;2023-05-25T14:15:36;27.80;46.70
20319;DHT22;10317;47.254;11.314;2023-05-25T14:18:05;27.70;46.60
20319;DHT22;10317;47.254;11.314;2023-05-25T14:20:30;27.80;46.60
20319;DHT22;10317;47.254;11.314;2023-05-25T14:22:58;27.80;45.90
20319;DHT22;10317;47.254;11.314;2023-05-25T14:25:25;27.70;46.20
20319;DHT22;10317;47.254;11.314;2023-05-25T14:27:50;27.90;46.30
20319;DHT22;10317;47.254;11.314;2023-05-25T14:30:16;27.80;46.50
20319;DHT22;10317;47.254;11.314;2023-05-25T14:32:42;27.90;45.90
20319;DHT22;10317;47.254;11.314;2023-05-25T14:35:08;27.90;49.50
20319;DHT22;10317;47.254;11.314;2023-05-25T14:37:34;27.80;49.70
20319;DHT22;10317;47.254;11.314;2023-05-25T14:39:59;27.90;49.90
20319;DHT22;10317;47.254;11.314;2023-05-25T14:42:25;27.90;48.30
20319;DHT22;10317;47.254;11.314;2023-05-25T14:44:51;27.90;50.30
20319;DHT22;10317;47.254;11.314;2023-05-25T14:47:17;27.70;47.90
20319;DHT22;10317;47.254;11.314;2023-05-25T14:49:42;27.80;47.60
20319;DHT22;10317;47.254;11.314;2023-05-25T14:52:08;27.70;46.10
20319;DHT22;10317;47.254;11.314;2023-05-25T14:54:33;27.90;48.70
20319;DHT22;10317;47.254;11.314;2023-05-25T14:57:00;27.80;45.30
20319;DHT22;10317;47.254;11.314;2023-05-25T14:59:26;27.70;48.00
20319;DHT22;10317;47.254;11.314;2023-05-25T15:01:51;27.70;52.90
20319;DHT22;10317;47.254;11.314;2023-05-25T15:04:17;27.70;48.60
20319;DHT22;10317;47.254;11.314;2023-05-25T15:06:43;27.60;45.70
20319;DHT22;10317;47.254;11.314;2023-05-25T15:09:08;27.50;44.90
20319;DHT22;10317;47.254;11.314;2023-05-25T15:11:34;27.40;43.10
20319;DHT22;10317;47.254;11.314;2023-05-25T15:14:00;27.60;47.20
20319;DHT22;10317;47.254;11.314;2023-05-25T15:16:25;27.70;47.50
20319;DHT22;10317;47.254;11.314;2023-05-25T15:18:51;27.80;50.50
20319;DHT22;10317;47.254;11.314;2023-05-25T15:21:17;27.90;52.30
20319;DHT22;10317;47.254;11.314;2023-05-25T15:23:42;27.40;46.20
20319;DHT22;10317;47.254;11.314;2023-05-25T15:26:08;27.50;47.80
20319;DHT22;10317;47.254;11.314;2023-05-25T15:28:36;27.50;46.10
20319;DHT22;10317;47.254;11.314;2023-05-25T15:31:02;27.50;46.40
20319;DHT22;10317;47.254;11.314;2023-05-25T15:33:28;27.50;46.90
20319;DHT22;10317;47.254;11.314;2023-05-25T15:35:54;27.50;46.00
20319;DHT22;10317;47.254;11.314;2023-05-25T15:38:19;27.60;45.40
20319;DHT22;10317;47.254;11.314;2023-05-25T15:40:45;27.60;44.00
20319;DHT22;10317;47.254;11.314;2023-05-25T15:43:11;27.70;45.40
20319;DHT22;10317;47.254;11.314;2023-05-25T15:45:36;27.60;47.50
20319;DHT22;10317;47.254;11.314;2023-05-25T15:48:02;27.70;44.70
20319;DHT22;10317;47.254;11.314;2023-05-25T15:50:28;27.70;46.50
20319;DHT22;10317;47.254;11.314;2023-05-25T15:52:54;27.60;45.30
20319;DHT22;10317;47.254;11.314;2023-05-25T15:55:20;27.70;45.90
20319;DHT22;10317;47.254;11.314;2023-05-25T15:57:46;27.80;48.90
20319;DHT22;10317;47.254;11.314;2023-05-25T16:00:12;27.80;44.20
20319;DHT22;10317;47.254;11.314;2023-05-25T16:02:38;27.80;45.80
20319;DHT22;10317;47.254;11.314;2023-05-25T16:05:04;27.70;45.60
20319;DHT22;10317;47.254;11.314;2023-05-25T16:07:31;27.60;51.10
20319;DHT22;10317;47.254;11.314;2023-05-25T16:09:57;27.60;54.50
20319;DHT22;10317;47.254;11.314;2023-05-25T16:12:23;27.60;48.30
20319;DHT22;10317;47.254;11.314;2023-05-25T16:14:51;27.40;47.90
20319;DHT22;10317;47.254;11.314;2023-05-25T16:17:17;27.30;51.10
20319;DHT22;10317;47.254;11.314;2023-05-25T16:19:43;27.40;53.10
20319;DHT22;10317;47.254;11.314;2023-05-25T16:22:08;27.40;49.40
20319;DHT22;10317;47.254;11.314;2023-05-25T16:24:34;27.30;51.50
20319;DHT22;10317;47.254;11.314;2023-05-25T16:27:00;27.10;57.60
20319;DHT22;10317;47.254;11.314;2023-05-25T16:29:27;26.80;49.20
20319;DHT22;10317;47.254;11.314;2023-05-25T16:31:53;26.70;52.70
20319;DHT22;10317;47.254;11.314;2023-05-25T16:34:20;26.50;53.10
20319;DHT22;10317;47.254;11.314;2023-05-25T16:36:46;26.30;54.50
20319;DHT22;10317;47.254;11.314;2023-05-25T16:39:11;26.20;54.30
20319;DHT22;10317;47.254;11.314;2023-05-25T16:41:37;26.10;55.30
20319;DHT22;10317;47.254;11.314;2023-05-25T16:44:03;26.00;57.20
20319;DHT22;10317;47.254;11.314;2023-05-25T16:46:28;25.90;57.00
20319;DHT22;10317;47.254;11.314;2023-05-25T16:48:54;25.70;57.30
20319;DHT22;10317;47.254;11.314;2023-05-25T16:51:20;25.60;58.40
20319;DHT22;10317;47.254;11.314;2023-05-25T16:53:46;25.40;59.00
20319;DHT22;10317;47.254;11.314;2023-05-25T16:56:11;25.30;58.20
20319;DHT22;10317;47.254;11.314;2023-05-25T16:58:37;25.00;59.50
20319;DHT22;10317;47.254;11.314;2023-05-25T17:01:03;24.90;60.20
20319;DHT22;10317;47.254;11.314;2023-05-25T17:03:28;24.70;60.90